• Join FlightAware (Why Join?)
  • Login
  • US Flag 
 
07:34PM EST


 

Airport Tracker/Info


-or-


 

Live Flight TrackerFlight Track Log ✈ DAL6057 ✈ 17-Apr-2013 ✈ KCMH - KDTW

Flight Track Log - Related Links

Times and Time Zones

All times are in EDT time to prevent confusion due to time zone crossing. See the DAL6057 flight status page for this flight to view local times or setup timezone preferences in your user account.

Time Position Orientation Groundspeed Altitude Reporting Facility
EDT Latitude Longitude Course Direction KTS MPH feet Rate Location/Type
06:47AM 40.0008 -82.8719 25° Northeast 166 191 1,400  Level Indianapolis Center
06:47AM 39.9989 -82.8389 94° East 160 184 2,600 1,680 Climbing Indianapolis Center
06:48AM 39.9975 -82.7969 92° East 185 213 3,500 1,500 Climbing Indianapolis Center
06:49AM 40.0119 -82.7186 76° East 226 260 5,300 2,100 Climbing Indianapolis Center
06:50AM 40.2176 -82.7160 29° Northeast  Level FlightAware Approximate
06:50AM 40.0889 -82.6858 18° North 250 288 7,800  Level Indianapolis Center
06:51AM 40.2980 -82.6586 29° Northeast  Level FlightAware Approximate
06:51AM 40.1589 -82.6592 16° North 259 298 10,100  Level Indianapolis Center
06:52AM 40.3800 -82.6053 25° Northeast  Level FlightAware Approximate
06:52AM 40.2311 -82.6300 17° North 267 307 12,300  Level Indianapolis Center
06:53AM 40.2939 -82.6050 17° North 272 313 14,100 1,320 Climbing Indianapolis Center
06:54AM 40.3683 -82.5728 18° North 278 320 15,000 420 Climbing Indianapolis Center
06:55AM 40.4506 -82.5400 17° North 301 346 15,000  Level Indianapolis Center
06:56AM 40.5461 -82.5011 17° North 304 350 15,000  Level Indianapolis Center
06:57AM 40.6311 -82.4819 10° North 306 352 15,000 -60 Level Indianapolis Center
06:58AM 40.6989 -82.5222 336° Northwest 285 328 14,900 -60 Descending Cleveland Center
06:59AM 40.7817 -82.5656 338° Northwest 302 348 14,900  Level Cleveland Center
07:00AM 40.8664 -82.6094 339° North 323 372 15,000  Climbing Cleveland Center
07:01AM 40.9406 -82.6503 337° Northwest 302 348 15,000  Level Cleveland Center
07:02AM 41.0108 -82.6881 338° Northwest 280 322 15,000  Level Cleveland Center
07:03AM 41.0811 -82.7264 338° Northwest 275 316 15,100  Climbing Cleveland Center
07:04AM 41.1469 -82.7589 340° North 275 316 15,000 -240 Descending Cleveland Center
07:05AM 41.2194 -82.7972 338° Northwest 275 316 14,700 -660 Descending Cleveland Center
07:06AM 41.2956 -82.8383 338° Northwest 281 323 13,700 -1,080 Descending Cleveland Center
07:07AM 41.3822 -82.8883 337° Northwest 279 321 12,500 -1,140 Descending Cleveland Center
07:08AM 41.4381 -82.9153 340° North 281 323 11,500 -840 Descending Cleveland Center
07:09AM 41.5142 -82.9542 339° North 276 318 10,900 -300 Descending Cleveland Center
07:10AM 41.5864 -82.9956 337° Northwest 269 310 11,000 60 Climbing Cleveland Center
07:11AM 41.6606 -83.0347 338° Northwest 283 326 11,100  Climbing Cleveland Center
07:12AM 41.7222 -83.0731 335° Northwest 270 311 11,000 -600 Descending Cleveland Center
07:13AM 41.7978 -83.0564 North 260 299 10,000 -600 Descending Cleveland Center
07:14AM 41.8467 -83.0111 35° Northeast 231 266 9,900 -660 Descending Cleveland Center
07:15AM 41.9097 -82.9911 13° North 231 266 8,800 -1,200 Descending Cleveland Center
07:16AM 41.9417 -83.0508 306° West 171 197 7,500 -1,260 Descending Cleveland Center
07:17AM 41.9417 -83.1486 270° West 227 261 6,200 -720 Descending Cleveland Center
07:18AM 41.9461 -83.2325 274° West 220 253 6,000 -660 Descending Cleveland Center
07:20AM 41.9531 -83.3542 274° West 192 221 4,600 -960 Descending FAA TRACON SMA TRACON (SMA)
07:20AM 41.9564 -83.3758 282° West 193 222 4,200 -900 Descending FAA TRACON SMA TRACON (SMA)
07:21AM 41.9642 -83.3950 299° West 184 212 4,000 -900 Descending FAA TRACON SMA TRACON (SMA)
07:21AM 41.9753 -83.4194 301° West 197 227 3,600 -1,080 Descending FAA TRACON SMA TRACON (SMA)
07:21AM 41.9844 -83.4392 302° West 201 231 3,300 -780 Descending FAA TRACON SMA TRACON (SMA)
07:22AM 41.9953 -83.4564 310° West 194 223 3,100 -480 Descending FAA TRACON SMA TRACON (SMA)
07:22AM 42.0106 -83.4661 335° Northwest 186 214 3,000 -180 Descending FAA TRACON SMA TRACON (SMA)
07:22AM 42.0289 -83.4697 352° North 178 205 3,000  Level FAA TRACON SMA TRACON (SMA)
07:23AM 42.0456 -83.4653 11° North 166 191 3,000  Level FAA TRACON SMA TRACON (SMA)
07:23AM 42.0564 -83.4561 32° Northeast 164 189 3,000 120 Level FAA TRACON SMA TRACON (SMA)
07:23AM 42.0708 -83.4444 31° Northeast 167 192 3,100  Climbing FAA TRACON SMA TRACON (SMA)
07:24AM 42.0861 -83.4331 29° Northeast 175 201 3,000 -300 Descending FAA TRACON SMA TRACON (SMA)